createdAt,value
2017-12-14T00:00:29.404Z,985.47
2017-12-14T00:01:29.656Z,985.57
2017-12-14T00:02:29.897Z,985.56
2017-12-14T00:03:30.090Z,985.51
2017-12-14T00:04:29.425Z,985.59
2017-12-14T00:05:29.627Z,985.47
2017-12-14T00:06:29.730Z,985.52
2017-12-14T00:07:29.858Z,985.48
2017-12-14T00:08:29.905Z,985.47
2017-12-14T00:09:30.113Z,985.43
2017-12-14T00:10:29.282Z,985.48
2017-12-14T00:11:29.392Z,985.53
2017-12-14T00:12:30.182Z,985.58
2017-12-14T00:13:29.409Z,985.46
2017-12-14T00:14:29.487Z,985.48
2017-12-14T00:15:29.621Z,985.50
2017-12-14T00:16:29.776Z,985.51
2017-12-14T00:17:30.026Z,985.65
2017-12-14T00:18:30.111Z,985.69
2017-12-14T00:19:30.185Z,985.67
2017-12-14T00:20:29.346Z,985.75
2017-12-14T00:21:52.356Z,985.68
2017-12-14T00:22:52.532Z,985.76
2017-12-14T00:23:52.732Z,985.67
2017-12-14T00:24:53.062Z,985.70
2017-12-14T00:25:53.124Z,985.65
2017-12-14T00:26:53.111Z,985.71
2017-12-14T00:27:53.170Z,985.72
2017-12-14T00:29:35.276Z,985.55
2017-12-14T00:30:36.231Z,985.54
2017-12-14T00:31:35.470Z,985.42
2017-12-14T00:32:52.050Z,985.62
2017-12-14T00:33:52.204Z,985.51
2017-12-14T00:34:52.644Z,985.51
2017-12-14T00:35:52.901Z,985.51
2017-12-14T00:36:52.985Z,985.60
2017-12-14T00:37:52.227Z,985.57
2017-12-14T00:38:52.481Z,985.61
2017-12-14T00:39:52.663Z,985.54
2017-12-14T00:40:52.731Z,985.50
2017-12-14T00:41:52.902Z,985.53
2017-12-14T00:42:53.027Z,985.46
2017-12-14T00:43:52.219Z,985.47
2017-12-14T00:44:52.651Z,985.57
2017-12-14T00:46:15.785Z,985.49
2017-12-14T00:47:15.975Z,985.55
2017-12-14T00:48:16.179Z,985.60
2017-12-14T00:49:16.225Z,985.50
2017-12-14T00:50:16.441Z,985.57
2017-12-14T00:51:16.735Z,985.44
2017-12-14T00:52:16.058Z,985.50
2017-12-14T00:53:16.137Z,985.53
2017-12-14T00:54:16.312Z,985.51
2017-12-14T00:55:16.894Z,985.61
2017-12-14T00:56:16.077Z,985.55
2017-12-14T00:57:16.145Z,985.71
2017-12-14T00:58:16.385Z,985.71
2017-12-14T00:59:16.399Z,985.44
2017-12-14T01:00:16.583Z,985.75
2017-12-14T01:01:41.399Z,985.75
2017-12-14T01:02:41.515Z,985.81
2017-12-14T01:03:41.645Z,985.85
2017-12-14T01:04:41.609Z,985.86
2017-12-14T01:05:41.828Z,985.84
2017-12-14T01:06:41.803Z,985.93
2017-12-14T01:07:41.960Z,985.93
2017-12-14T01:08:42.029Z,985.94
2017-12-14T01:09:42.106Z,986.00
2017-12-14T01:10:42.320Z,985.94
2017-12-14T01:12:04.367Z,986.01
2017-12-14T01:13:04.441Z,986.05
2017-12-14T01:14:04.689Z,986.10
2017-12-14T01:15:04.721Z,986.13
2017-12-14T01:16:04.866Z,986.28
2017-12-14T01:17:05.039Z,986.29
2017-12-14T01:18:05.283Z,986.36
2017-12-14T01:19:04.416Z,986.34
2017-12-14T01:20:04.363Z,986.24
2017-12-14T01:21:04.393Z,986.36
2017-12-14T01:22:04.496Z,986.35
2017-12-14T01:23:04.549Z,986.43
2017-12-14T01:24:04.619Z,986.35
2017-12-14T01:25:04.898Z,986.39
2017-12-14T01:26:05.119Z,986.34
2017-12-14T01:27:05.139Z,986.36
2017-12-14T01:28:04.368Z,986.27
2017-12-14T01:29:04.504Z,986.37
2017-12-14T01:30:04.671Z,986.33
2017-12-14T01:31:04.829Z,986.32
2017-12-14T01:32:04.932Z,986.38
2017-12-14T01:33:05.045Z,986.37
2017-12-14T01:34:05.256Z,986.39
2017-12-14T01:35:05.283Z,986.45
2017-12-14T01:36:04.783Z,986.31
2017-12-14T01:37:04.974Z,986.40
2017-12-14T01:38:05.110Z,986.34
2017-12-14T01:39:05.823Z,986.31
2017-12-14T01:40:04.864Z,986.32
2017-12-14T01:41:05.274Z,986.32
2017-12-14T01:42:04.558Z,986.33
2017-12-14T01:43:04.636Z,986.30
2017-12-14T01:44:04.815Z,986.27
2017-12-14T01:45:04.977Z,986.25
2017-12-14T01:46:05.048Z,986.21
2017-12-14T01:47:28.044Z,986.23
2017-12-14T01:48:28.307Z,986.22
2017-12-14T01:49:28.430Z,986.18
2017-12-14T01:50:28.543Z,986.24
2017-12-14T01:51:28.967Z,986.27
2017-12-14T01:52:28.169Z,986.34
2017-12-14T01:53:28.209Z,986.40
2017-12-14T01:54:28.248Z,986.45
2017-12-14T01:55:28.472Z,986.52
2017-12-14T01:56:28.671Z,986.57
2017-12-14T01:57:28.745Z,986.71
2017-12-14T01:58:29.562Z,986.74
2017-12-14T01:59:28.776Z,986.77
2017-12-14T02:00:28.866Z,986.73
2017-12-14T02:01:28.048Z,986.83
2017-12-14T02:02:28.231Z,986.84
2017-12-14T02:03:28.353Z,986.86
2017-12-14T02:04:28.641Z,986.87
2017-12-14T02:05:28.680Z,986.88
2017-12-14T02:06:28.917Z,986.91
2017-12-14T02:07:28.042Z,986.93
2017-12-14T02:08:28.290Z,986.88
2017-12-14T02:09:28.469Z,986.92
2017-12-14T02:10:28.582Z,986.92
2017-12-14T02:11:28.925Z,986.95
2017-12-14T02:12:28.245Z,986.96
2017-12-14T02:13:28.474Z,986.95
2017-12-14T02:14:28.604Z,987.00
2017-12-14T02:15:29.516Z,986.96
2017-12-14T02:16:28.577Z,987.00
2017-12-14T02:17:28.770Z,986.91
2017-12-14T02:18:28.838Z,986.93
2017-12-14T02:19:27.971Z,986.90
2017-12-14T02:20:29.073Z,986.92
2017-12-14T02:21:53.092Z,986.95
2017-12-14T02:22:53.382Z,986.91
2017-12-14T02:23:53.427Z,986.88
2017-12-14T02:24:53.684Z,986.85
2017-12-14T02:25:53.774Z,986.89
2017-12-14T02:26:53.884Z,986.82
2017-12-14T02:27:54.086Z,986.79
2017-12-14T02:28:53.165Z,986.80
2017-12-14T02:29:53.230Z,986.74
2017-12-14T02:30:53.379Z,986.78
2017-12-14T02:31:53.417Z,986.71
2017-12-14T02:32:53.792Z,986.63
2017-12-14T02:33:53.899Z,986.64
2017-12-14T02:34:53.884Z,986.65
2017-12-14T02:35:55.001Z,986.58
2017-12-14T02:36:53.514Z,986.55
2017-12-14T02:37:53.709Z,986.59
2017-12-14T02:38:53.989Z,986.59
2017-12-14T02:40:16.166Z,986.56
2017-12-14T02:41:16.237Z,986.47
2017-12-14T02:42:16.482Z,986.56
2017-12-14T02:43:16.931Z,986.48
2017-12-14T02:44:38.956Z,986.44
2017-12-14T02:45:39.130Z,986.49
2017-12-14T02:46:39.316Z,986.50
2017-12-14T02:47:39.547Z,986.49
2017-12-14T02:48:39.866Z,986.55
2017-12-14T02:49:39.113Z,986.52
2017-12-14T02:50:39.218Z,986.52
2017-12-14T02:51:39.374Z,986.59
2017-12-14T02:52:39.606Z,986.52
2017-12-14T02:53:39.750Z,986.54
2017-12-14T02:54:39.037Z,986.55
2017-12-14T02:55:39.189Z,986.56
2017-12-14T02:56:39.371Z,986.62
2017-12-14T02:57:39.571Z,986.70
2017-12-14T02:58:39.690Z,986.56
2017-12-14T02:59:39.870Z,986.52
2017-12-14T03:00:39.877Z,986.58
2017-12-14T03:01:39.095Z,986.60
2017-12-14T03:02:39.244Z,986.64
2017-12-14T03:03:39.557Z,986.63
2017-12-14T03:04:39.813Z,986.66
2017-12-14T03:05:39.122Z,986.65
2017-12-14T03:06:39.167Z,986.64
2017-12-14T03:07:39.315Z,986.65
2017-12-14T03:08:39.480Z,986.66
2017-12-14T03:09:39.551Z,986.64
2017-12-14T03:10:39.745Z,986.65
2017-12-14T03:11:38.878Z,986.68
2017-12-14T03:12:38.964Z,986.66
2017-12-14T03:13:39.339Z,986.64
2017-12-14T03:14:39.535Z,986.63
2017-12-14T03:15:39.632Z,986.70
2017-12-14T03:16:39.639Z,986.63
2017-12-14T03:17:39.598Z,986.63
2017-12-14T03:19:02.879Z,986.64
2017-12-14T03:20:02.867Z,986.60
2017-12-14T03:21:02.935Z,986.62
2017-12-14T03:22:03.050Z,986.66
2017-12-14T03:23:03.144Z,986.63
2017-12-14T03:24:03.321Z,986.65
2017-12-14T03:25:03.526Z,986.69
2017-12-14T03:26:03.693Z,986.74
2017-12-14T03:27:02.923Z,986.68
2017-12-14T03:28:03.030Z,986.64
2017-12-14T03:29:03.312Z,986.64
2017-12-14T03:30:03.378Z,986.72
2017-12-14T03:31:03.695Z,986.61
2017-12-14T03:32:03.666Z,986.64
2017-12-14T03:33:03.747Z,986.63
2017-12-14T03:34:02.941Z,986.63
2017-12-14T03:35:03.141Z,986.68
2017-12-14T03:36:03.291Z,986.68
2017-12-14T03:37:03.433Z,986.70
2017-12-14T03:38:03.584Z,986.78
2017-12-14T03:39:03.687Z,986.71
2017-12-14T03:40:03.842Z,986.67
2017-12-14T03:41:02.933Z,986.71
2017-12-14T03:42:03.146Z,986.71
2017-12-14T03:43:03.123Z,986.68
2017-12-14T03:44:33.935Z,986.75
2017-12-14T03:45:03.078Z,986.77
2017-12-14T03:46:03.088Z,986.75
2017-12-14T03:47:03.255Z,986.77
2017-12-14T03:48:03.464Z,986.98
2017-12-14T03:49:03.705Z,986.85
2017-12-14T03:50:03.769Z,986.88
2017-12-14T03:51:02.945Z,986.86
2017-12-14T03:52:03.150Z,986.87
2017-12-14T03:53:03.400Z,986.85
2017-12-14T03:54:03.648Z,986.92
2017-12-14T03:55:03.722Z,986.89
2017-12-14T03:56:03.195Z,986.87
2017-12-14T03:57:03.432Z,986.84
2017-12-14T03:58:03.539Z,986.87
2017-12-14T03:59:03.677Z,986.85
2017-12-14T04:00:03.633Z,986.80
2017-12-14T04:01:02.955Z,986.84
2017-12-14T04:02:03.081Z,986.83
2017-12-14T04:03:03.453Z,986.92
2017-12-14T04:04:03.380Z,986.84
2017-12-14T04:05:03.752Z,986.93
2017-12-14T04:06:02.821Z,986.92
2017-12-14T04:07:02.848Z,986.91
2017-12-14T04:08:02.989Z,986.90
2017-12-14T04:09:03.127Z,986.95
2017-12-14T04:10:03.144Z,986.90
2017-12-14T04:11:04.253Z,986.93
2017-12-14T04:12:03.363Z,986.83
2017-12-14T04:13:03.438Z,986.83
2017-12-14T04:14:03.671Z,986.90
2017-12-14T04:15:39.264Z,986.81
2017-12-14T04:16:39.530Z,986.81
2017-12-14T04:17:39.642Z,986.84
2017-12-14T04:18:39.788Z,986.88
2017-12-14T04:19:39.887Z,986.85
2017-12-14T04:20:39.974Z,986.90
2017-12-14T04:21:39.348Z,986.90
2017-12-14T04:22:39.451Z,986.87
2017-12-14T04:23:39.484Z,986.90
2017-12-14T04:25:02.503Z,986.93
2017-12-14T04:26:03.777Z,986.87
2017-12-14T04:27:03.036Z,986.94
2017-12-14T04:28:03.087Z,986.84
2017-12-14T04:29:03.424Z,986.89
2017-12-14T04:30:03.489Z,986.90
2017-12-14T04:31:02.654Z,986.90
2017-12-14T04:32:03.113Z,986.88
2017-12-14T04:33:03.308Z,986.90
2017-12-14T04:34:03.258Z,986.96
2017-12-14T04:35:25.656Z,986.94
2017-12-14T04:36:25.807Z,986.95
2017-12-14T04:37:26.070Z,986.90
2017-12-14T04:38:26.230Z,986.88
2017-12-14T04:39:26.299Z,986.87
2017-12-14T04:40:26.417Z,986.90
2017-12-14T04:41:26.518Z,986.91
2017-12-14T04:42:45.412Z,986.90
2017-12-14T04:43:45.595Z,986.94
2017-12-14T04:44:45.765Z,986.93
2017-12-14T04:45:45.833Z,986.88
2017-12-14T04:47:08.647Z,986.92
2017-12-14T04:48:09.058Z,986.89
2017-12-14T04:48:45.842Z,986.92
2017-12-14T04:49:45.958Z,986.88
2017-12-14T04:50:46.080Z,986.88
2017-12-14T04:51:46.289Z,986.89
2017-12-14T04:52:46.431Z,986.89
2017-12-14T04:53:46.649Z,986.87
2017-12-14T04:54:45.859Z,986.84
2017-12-14T04:55:46.061Z,986.87
2017-12-14T04:57:09.096Z,986.88
2017-12-14T04:58:09.252Z,986.81
2017-12-14T04:59:09.744Z,986.83
2017-12-14T05:00:09.700Z,986.82
2017-12-14T05:01:10.040Z,986.84
2017-12-14T05:02:09.198Z,986.87
2017-12-14T05:03:09.455Z,986.83
2017-12-14T05:04:25.725Z,986.87
2017-12-14T05:05:26.033Z,986.89
2017-12-14T05:06:26.092Z,986.86
2017-12-14T05:07:45.187Z,986.94
2017-12-14T05:08:45.400Z,986.87
2017-12-14T05:09:45.847Z,986.91
2017-12-14T05:10:45.775Z,986.91
2017-12-14T05:11:45.887Z,986.97
2017-12-14T05:12:45.879Z,986.97
2017-12-14T05:13:46.141Z,987.02
2017-12-14T05:14:45.791Z,987.05
2017-12-14T05:15:45.945Z,987.10
2017-12-14T05:16:46.173Z,987.08
2017-12-14T05:17:45.361Z,987.07
2017-12-14T05:18:45.515Z,987.04
2017-12-14T05:19:45.638Z,987.10
2017-12-14T05:20:45.743Z,987.09
2017-12-14T05:21:45.837Z,987.06
2017-12-14T05:22:45.963Z,987.11
2017-12-14T05:23:46.175Z,987.15
2017-12-14T05:24:45.500Z,987.15
2017-12-14T05:25:45.665Z,987.12
2017-12-14T05:26:45.810Z,987.19
2017-12-14T05:28:10.994Z,987.17
2017-12-14T05:29:10.994Z,987.17
2017-12-14T05:30:11.293Z,987.14
2017-12-14T05:31:11.508Z,987.21
2017-12-14T05:32:11.509Z,987.20
2017-12-14T05:33:11.580Z,987.17
2017-12-14T05:34:11.623Z,987.18
2017-12-14T05:35:10.845Z,987.26
2017-12-14T05:36:10.991Z,987.27
2017-12-14T05:37:11.161Z,987.29
2017-12-14T05:38:11.364Z,987.34
2017-12-14T05:39:11.555Z,987.32
2017-12-14T05:40:11.675Z,987.38
2017-12-14T05:41:10.927Z,987.39
2017-12-14T05:42:11.062Z,987.38
2017-12-14T05:43:11.066Z,987.37
2017-12-14T05:44:11.157Z,987.38
2017-12-14T05:45:11.387Z,987.39
2017-12-14T05:46:34.361Z,987.40
2017-12-14T05:47:34.413Z,987.41
2017-12-14T05:48:34.673Z,987.42
2017-12-14T05:49:34.949Z,987.43
2017-12-14T05:50:35.132Z,987.43
2017-12-14T05:51:58.100Z,987.45
2017-12-14T05:52:58.389Z,987.47
2017-12-14T05:53:58.444Z,987.43
2017-12-14T05:54:58.588Z,987.50
2017-12-14T05:55:58.675Z,987.44
2017-12-14T05:56:58.748Z,987.44
2017-12-14T05:57:58.910Z,987.44
2017-12-14T05:58:59.228Z,987.47
2017-12-14T05:59:58.365Z,987.48
2017-12-14T06:00:58.641Z,987.46
2017-12-14T06:01:58.917Z,987.50
2017-12-14T06:02:59.004Z,987.49
2017-12-14T06:03:58.208Z,987.52
2017-12-14T06:04:58.423Z,987.59
2017-12-14T06:05:58.516Z,987.54
2017-12-14T06:06:58.571Z,987.55
2017-12-14T06:07:58.655Z,987.54
2017-12-14T06:08:58.996Z,987.60
2017-12-14T06:09:59.082Z,987.62
2017-12-14T06:10:58.310Z,987.65
2017-12-14T06:11:58.528Z,987.74
2017-12-14T06:12:58.637Z,987.82
2017-12-14T06:13:58.929Z,987.82
2017-12-14T06:14:58.997Z,987.83
2017-12-14T06:15:59.065Z,987.86
2017-12-14T06:16:58.387Z,987.90
2017-12-14T06:17:58.537Z,987.92
2017-12-14T06:18:58.597Z,987.95
2017-12-14T06:19:58.626Z,987.96
2017-12-14T06:20:58.833Z,987.97
2017-12-14T06:21:58.915Z,988.00
2017-12-14T06:22:58.152Z,988.06
2017-12-14T06:23:58.298Z,988.02
2017-12-14T06:24:58.473Z,988.03
2017-12-14T06:25:58.419Z,988.04
2017-12-14T06:26:58.689Z,988.09
2017-12-14T06:27:58.875Z,988.09
2017-12-14T06:28:59.164Z,988.15
2017-12-14T06:29:58.345Z,988.20
2017-12-14T06:30:58.761Z,988.27
2017-12-14T06:31:58.814Z,988.26
2017-12-14T06:32:58.920Z,988.28
2017-12-14T06:33:58.188Z,988.31
2017-12-14T06:34:58.464Z,988.32
2017-12-14T06:35:58.705Z,988.37
2017-12-14T06:36:58.882Z,988.37
2017-12-14T06:37:58.204Z,988.42
2017-12-14T06:38:58.489Z,988.42
2017-12-14T06:39:58.570Z,988.43
2017-12-14T06:40:58.734Z,988.48
2017-12-14T06:41:58.885Z,988.49
2017-12-14T06:42:58.931Z,988.47
2017-12-14T06:43:59.069Z,988.51
2017-12-14T06:44:59.124Z,988.51
2017-12-14T06:45:58.255Z,988.57
2017-12-14T06:46:58.597Z,988.62
2017-12-14T06:47:58.723Z,988.61
2017-12-14T06:48:59.504Z,988.63
2017-12-14T06:49:58.603Z,988.66
2017-12-14T06:50:58.626Z,988.71
2017-12-14T06:51:58.786Z,988.75
2017-12-14T06:52:58.993Z,988.74
2017-12-14T06:53:59.211Z,988.74
2017-12-14T06:54:58.405Z,988.72
2017-12-14T06:55:58.534Z,988.79
2017-12-14T06:56:58.797Z,988.84
2017-12-14T06:57:58.740Z,988.82
2017-12-14T06:58:59.007Z,988.83
2017-12-14T06:59:59.007Z,988.88
2017-12-14T07:00:59.136Z,988.88
2017-12-14T07:01:58.327Z,988.89
2017-12-14T07:02:58.609Z,988.93
2017-12-14T07:03:58.694Z,988.87
2017-12-14T07:04:58.960Z,988.92
2017-12-14T07:05:59.109Z,988.98
2017-12-14T07:06:58.254Z,988.99
2017-12-14T07:07:58.367Z,988.97
2017-12-14T07:08:58.620Z,989.00
2017-12-14T07:10:21.765Z,988.94
2017-12-14T07:11:22.030Z,988.98
2017-12-14T07:12:22.251Z,989.06
2017-12-14T07:13:22.562Z,989.02
2017-12-14T07:14:21.789Z,989.00
2017-12-14T07:15:21.937Z,989.01
2017-12-14T07:16:22.123Z,989.06
2017-12-14T07:17:22.578Z,989.05
2017-12-14T07:18:21.802Z,989.04
2017-12-14T07:19:22.068Z,989.05
2017-12-14T07:20:22.174Z,989.11
2017-12-14T07:21:22.306Z,989.07
2017-12-14T07:22:22.553Z,989.09
2017-12-14T07:23:22.598Z,989.10
2017-12-14T07:24:21.764Z,989.09
2017-12-14T07:25:21.980Z,989.10
2017-12-14T07:26:22.300Z,989.17
2017-12-14T07:27:22.730Z,989.15
2017-12-14T07:28:22.037Z,989.14
2017-12-14T07:29:22.328Z,989.23
2017-12-14T07:30:22.674Z,989.26
2017-12-14T07:31:21.954Z,989.21
2017-12-14T07:32:22.215Z,989.23
2017-12-14T07:33:22.824Z,989.26
2017-12-14T07:34:44.975Z,989.31
2017-12-14T07:35:45.124Z,989.36
2017-12-14T07:36:45.476Z,989.33
2017-12-14T07:37:45.855Z,989.38
2017-12-14T07:38:45.506Z,989.34
2017-12-14T07:40:02.553Z,989.36
2017-12-14T07:41:02.734Z,989.40
2017-12-14T07:42:25.973Z,989.36
2017-12-14T07:43:26.310Z,989.39
2017-12-14T07:44:49.620Z,989.43
2017-12-14T07:45:49.899Z,989.45
2017-12-14T07:46:49.979Z,989.46
2017-12-14T07:47:50.285Z,989.48
2017-12-14T07:48:50.512Z,989.48
2017-12-14T07:49:49.810Z,989.54
2017-12-14T07:50:49.969Z,989.56
2017-12-14T07:51:50.050Z,989.55
2017-12-14T07:52:50.349Z,989.59
2017-12-14T07:53:50.631Z,989.61
2017-12-14T07:54:49.985Z,989.61
2017-12-14T07:55:50.191Z,989.59
2017-12-14T07:56:50.498Z,989.65
2017-12-14T07:57:49.739Z,989.68
2017-12-14T07:59:12.864Z,989.68
2017-12-14T08:00:13.275Z,989.72
2017-12-14T08:01:13.590Z,989.79
2017-12-14T08:02:12.906Z,989.81
2017-12-14T08:03:13.006Z,989.85
2017-12-14T08:04:36.373Z,989.88
2017-12-14T08:05:36.697Z,989.90
2017-12-14T08:06:36.870Z,989.93
2017-12-14T08:07:36.974Z,989.95
2017-12-14T08:10:37.408Z,990.01
2017-12-14T08:11:38.181Z,990.06
2017-12-14T08:12:37.544Z,990.08
2017-12-14T08:13:37.750Z,990.07
2017-12-14T08:14:37.898Z,990.05
2017-12-14T08:15:38.045Z,990.09
2017-12-14T08:16:37.355Z,990.07
2017-12-14T08:17:37.509Z,990.13
2017-12-14T08:18:37.723Z,990.10
2017-12-14T08:19:38.074Z,990.16
2017-12-14T08:20:37.452Z,990.15
2017-12-14T08:21:37.733Z,990.14
2017-12-14T08:22:38.083Z,990.17
2017-12-14T08:23:38.186Z,990.20
2017-12-14T08:24:38.343Z,990.16
2017-12-14T08:25:37.668Z,990.17
2017-12-14T08:26:38.002Z,990.23
2017-12-14T08:27:38.432Z,990.19
2017-12-14T08:28:37.869Z,990.26
2017-12-14T08:29:38.189Z,990.21
2017-12-14T08:30:37.564Z,990.23
2017-12-14T08:32:01.015Z,990.28
2017-12-14T08:33:01.350Z,990.38
2017-12-14T08:34:01.801Z,990.41
2017-12-14T08:35:01.858Z,990.47
2017-12-14T08:36:01.129Z,990.48
2017-12-14T08:37:24.296Z,990.47
2017-12-14T08:38:24.446Z,990.53
2017-12-14T08:39:24.770Z,990.51
2017-12-14T08:40:24.998Z,990.53
2017-12-14T08:41:25.242Z,990.54
2017-12-14T08:42:24.391Z,990.51
2017-12-14T08:43:24.655Z,990.54
2017-12-14T08:44:24.969Z,990.56
2017-12-14T08:45:24.236Z,990.54
2017-12-14T08:46:24.742Z,990.54
2017-12-14T08:47:25.049Z,990.54
2017-12-14T08:48:24.223Z,990.58
2017-12-14T08:49:24.489Z,990.56
2017-12-14T08:50:24.781Z,990.65
2017-12-14T08:51:25.115Z,990.61
2017-12-14T08:52:47.276Z,990.59
2017-12-14T08:53:48.112Z,990.63
2017-12-14T08:54:47.369Z,990.63
2017-12-14T08:55:47.783Z,990.59
2017-12-14T08:56:48.613Z,990.65
2017-12-14T08:57:48.335Z,990.62
2017-12-14T08:58:48.042Z,990.67
2017-12-14T08:59:47.575Z,990.67
2017-12-14T09:00:48.037Z,990.66
2017-12-14T09:01:48.377Z,990.70
2017-12-14T09:02:47.793Z,990.74
2017-12-14T09:03:48.106Z,990.70
2017-12-14T09:04:48.299Z,990.74
2017-12-14T09:05:47.660Z,990.75
2017-12-14T09:06:48.826Z,990.76
2017-12-14T09:07:47.472Z,990.73
2017-12-14T09:08:47.802Z,990.77
2017-12-14T09:09:48.126Z,990.78
2017-12-14T09:10:47.446Z,990.81
2017-12-14T09:11:47.853Z,990.79
2017-12-14T09:13:35.099Z,990.80
2017-12-14T09:14:35.589Z,990.83
2017-12-14T09:15:35.101Z,990.82
2017-12-14T09:16:35.556Z,990.82
2017-12-14T09:17:35.118Z,990.81
2017-12-14T09:18:35.409Z,990.85
2017-12-14T09:19:35.903Z,990.84
2017-12-14T09:20:35.302Z,990.84
2017-12-14T09:21:35.838Z,990.80
2017-12-14T09:22:35.227Z,990.84
2017-12-14T09:23:35.720Z,990.85
2017-12-14T09:24:58.144Z,990.89
2017-12-14T09:25:58.446Z,990.89
2017-12-14T09:27:02.588Z,990.93
2017-12-14T09:28:04.223Z,990.96
2017-12-14T09:28:58.602Z,990.85
2017-12-14T09:29:59.294Z,990.86
2017-12-14T09:31:36.437Z,990.83
2017-12-14T09:32:36.681Z,990.92
2017-12-14T09:33:39.044Z,990.88
2017-12-14T09:34:39.866Z,990.91
2017-12-14T09:37:01.693Z,990.87
2017-12-14T09:38:03.974Z,990.87
2017-12-14T09:39:02.115Z,990.79
2017-12-14T09:40:29.682Z,990.88
2017-12-14T09:41:53.417Z,990.85
2017-12-14T09:43:15.129Z,990.85
2017-12-14T09:44:12.699Z,990.85
2017-12-14T09:45:12.786Z,990.87
2017-12-14T09:46:12.518Z,990.86
2017-12-14T09:47:14.503Z,990.90
2017-12-14T09:48:13.496Z,990.65
2017-12-14T09:49:36.431Z,990.87
2017-12-14T09:50:36.883Z,990.81
2017-12-14T09:51:36.573Z,990.81
2017-12-14T09:52:37.457Z,990.80
2017-12-14T09:53:37.100Z,990.80
2017-12-14T09:54:40.214Z,990.80
2017-12-14T09:55:36.474Z,990.82
2017-12-14T09:56:36.823Z,990.80
2017-12-14T09:57:36.418Z,990.74
2017-12-14T09:58:36.729Z,990.78
2017-12-14T09:59:41.056Z,990.79
2017-12-14T10:00:36.324Z,990.78
2017-12-14T10:02:00.063Z,990.74
2017-12-14T10:03:00.355Z,990.72
2017-12-14T10:04:00.580Z,990.79
2017-12-14T10:05:00.958Z,990.71
2017-12-14T10:06:00.376Z,990.74
2017-12-14T10:07:00.547Z,990.74
2017-12-14T10:08:00.880Z,990.76
2017-12-14T10:09:00.118Z,990.74
2017-12-14T10:10:00.488Z,990.71
2017-12-14T10:11:01.474Z,990.69
2017-12-14T10:12:00.718Z,990.76
2017-12-14T10:13:00.086Z,990.65
2017-12-14T10:14:00.497Z,990.67
2017-12-14T10:15:00.750Z,990.71
2017-12-14T10:16:00.182Z,990.68
2017-12-14T10:17:00.497Z,990.67
2017-12-14T10:18:00.909Z,990.75
2017-12-14T10:19:00.302Z,990.66
2017-12-14T10:20:00.770Z,990.71
2017-12-14T10:21:01.053Z,990.72
2017-12-14T10:22:00.238Z,990.68
2017-12-14T10:23:00.635Z,990.74
2017-12-14T10:24:24.005Z,990.70
2017-12-14T10:25:24.371Z,990.59
2017-12-14T10:26:24.634Z,990.63
2017-12-14T10:27:23.912Z,990.62
2017-12-14T10:28:24.378Z,990.67
2017-12-14T10:29:24.723Z,990.67
2017-12-14T10:30:24.059Z,990.67
2017-12-14T10:31:24.491Z,990.70
2017-12-14T10:32:24.814Z,990.65
2017-12-14T10:33:24.293Z,990.65
2017-12-14T10:34:24.647Z,990.67
2017-12-14T10:35:24.046Z,990.72
2017-12-14T10:36:24.215Z,990.67
2017-12-14T10:37:24.459Z,990.71
2017-12-14T10:38:24.879Z,990.72
2017-12-14T10:39:24.170Z,990.72
2017-12-14T10:40:24.481Z,990.69
2017-12-14T10:41:24.722Z,990.70
2017-12-14T10:42:24.735Z,990.66
2017-12-14T10:43:24.851Z,990.66
2017-12-14T10:44:24.250Z,990.72
2017-12-14T10:45:24.485Z,990.70
2017-12-14T10:46:24.671Z,990.70
2017-12-14T10:47:24.843Z,990.69
2017-12-14T10:48:24.212Z,990.65
2017-12-14T10:49:24.530Z,990.74
2017-12-14T10:50:24.873Z,990.70
2017-12-14T10:51:24.236Z,990.71
2017-12-14T10:52:24.666Z,990.66
2017-12-14T10:53:24.109Z,990.72
2017-12-14T10:54:24.635Z,990.68
2017-12-14T10:55:25.078Z,990.66
2017-12-14T10:56:25.091Z,990.80
2017-12-14T10:57:47.374Z,990.71
2017-12-14T10:58:47.507Z,990.75
2017-12-14T10:59:47.968Z,990.78
2017-12-14T11:00:48.448Z,990.80
2017-12-14T11:01:47.837Z,990.80
2017-12-14T11:02:48.345Z,990.78
2017-12-14T11:04:11.459Z,990.84
2017-12-14T11:05:35.377Z,990.76
2017-12-14T11:06:35.720Z,990.80
2017-12-14T11:07:35.946Z,990.82
2017-12-14T11:08:58.986Z,990.79
2017-12-14T11:09:59.212Z,990.78
2017-12-14T11:11:00.408Z,990.83
2017-12-14T11:11:59.958Z,990.80
2017-12-14T11:12:59.456Z,990.75
2017-12-14T11:13:59.841Z,990.83
2017-12-14T11:14:59.279Z,990.78
2017-12-14T11:15:59.762Z,990.82
2017-12-14T11:16:58.976Z,990.79
2017-12-14T11:17:59.504Z,990.78
2017-12-14T11:18:59.002Z,990.80
2017-12-14T11:19:59.375Z,990.82
2017-12-14T11:20:59.622Z,990.80
2017-12-14T11:21:59.862Z,990.80
2017-12-14T11:22:59.293Z,990.83
2017-12-14T11:24:00.103Z,990.81
2017-12-14T11:24:59.308Z,990.82
2017-12-14T11:25:59.874Z,990.78
2017-12-14T11:26:59.910Z,990.75
2017-12-14T11:27:59.304Z,990.76
2017-12-14T11:28:59.861Z,990.82
2017-12-14T11:29:59.090Z,990.76
2017-12-14T11:31:22.371Z,990.80
2017-12-14T11:32:22.570Z,990.80
2017-12-14T11:33:22.875Z,990.77
2017-12-14T11:34:23.225Z,990.79
2017-12-14T11:35:22.576Z,990.81
2017-12-14T11:36:23.613Z,990.81
2017-12-14T11:37:22.933Z,990.76
2017-12-14T11:38:23.103Z,990.82
2017-12-14T11:39:22.458Z,990.84
2017-12-14T11:40:45.940Z,990.84
2017-12-14T11:41:46.206Z,990.84
2017-12-14T11:42:46.751Z,990.80
2017-12-14T11:43:46.083Z,990.87
2017-12-14T11:44:46.682Z,990.84
2017-12-14T11:45:46.216Z,990.83
2017-12-14T11:46:46.527Z,990.77
2017-12-14T11:47:46.758Z,990.81
2017-12-14T11:48:46.202Z,990.77
2017-12-14T11:49:46.406Z,990.79
2017-12-14T11:50:46.571Z,990.78
2017-12-14T11:51:46.963Z,990.75
2017-12-14T11:52:46.297Z,990.72
2017-12-14T11:53:46.532Z,990.74
2017-12-14T11:54:47.413Z,990.76
2017-12-14T11:55:46.866Z,990.75
2017-12-14T11:56:46.038Z,990.79
2017-12-14T11:57:46.317Z,990.72
2017-12-14T11:58:46.651Z,990.75
2017-12-14T11:59:46.900Z,990.72
2017-12-14T12:00:46.210Z,990.67
2017-12-14T12:01:46.621Z,990.75
2017-12-14T12:02:45.953Z,990.71
2017-12-14T12:03:46.323Z,990.72
2017-12-14T12:04:46.655Z,990.69
2017-12-14T12:05:46.048Z,990.69
2017-12-14T12:06:46.200Z,990.64
2017-12-14T12:08:09.458Z,990.63
2017-12-14T12:09:09.625Z,990.63
2017-12-14T12:10:09.770Z,990.63
2017-12-14T12:11:09.866Z,990.64
2017-12-14T12:12:10.215Z,990.70
2017-12-14T12:13:09.531Z,990.72
2017-12-14T12:14:09.872Z,990.69
2017-12-14T12:15:10.097Z,990.66
2017-12-14T12:16:10.248Z,990.74
2017-12-14T12:17:09.728Z,990.70
2017-12-14T12:18:10.182Z,990.65
2017-12-14T12:19:10.365Z,990.60
2017-12-14T12:20:09.668Z,990.66
2017-12-14T12:21:09.861Z,990.55
2017-12-14T12:22:10.211Z,990.62
2017-12-14T12:23:09.585Z,990.61
2017-12-14T12:24:09.985Z,990.70
2017-12-14T12:25:10.376Z,990.65
2017-12-14T12:26:32.803Z,990.68
2017-12-14T12:27:33.095Z,990.66
2017-12-14T12:28:33.403Z,990.64
2017-12-14T12:29:33.697Z,990.66
2017-12-14T12:30:33.077Z,990.65
2017-12-14T12:31:33.548Z,990.65
2017-12-14T12:32:33.895Z,990.71
2017-12-14T12:33:33.678Z,990.67
2017-12-14T12:34:33.804Z,990.69
2017-12-14T12:35:33.092Z,990.72
2017-12-14T12:36:33.520Z,990.70
2017-12-14T12:37:32.869Z,990.65
2017-12-14T12:38:32.969Z,990.61
2017-12-14T12:40:19.251Z,990.68
2017-12-14T12:41:19.550Z,990.68
2017-12-14T12:42:42.748Z,990.74
2017-12-14T12:43:42.937Z,990.72
2017-12-14T12:44:43.731Z,990.68
2017-12-14T12:45:43.217Z,990.68
2017-12-14T12:46:43.669Z,990.65
2017-12-14T12:47:42.921Z,990.72
2017-12-14T12:49:06.205Z,990.69
2017-12-14T12:50:06.590Z,990.76
2017-12-14T12:51:07.215Z,990.72
2017-12-14T12:52:06.380Z,990.72
2017-12-14T12:53:07.274Z,990.64